sensor_id;sensor_type;location;lat;lon;timestamp;pressure;altitude;pressure_sealevel;temperature;humidity
44751;BME280;30477;48.224;11.470;2023-02-11T00:01:43;97944.81;;;-1.14;66.50
44751;BME280;30477;48.224;11.470;2023-02-11T00:04:08;97947.44;;;-1.19;66.37
44751;BME280;30477;48.224;11.470;2023-02-11T00:06:34;97941.50;;;-1.19;66.39
44751;BME280;30477;48.224;11.470;2023-02-11T00:09:01;97946.69;;;-1.26;66.39
44751;BME280;30477;48.224;11.470;2023-02-11T00:11:26;97939.97;;;-1.30;66.16
44751;BME280;30477;48.224;11.470;2023-02-11T00:14:00;97939.97;;;-1.30;66.58
44751;BME280;30477;48.224;11.470;2023-02-11T00:16:26;97943.25;;;-1.21;66.86
44751;BME280;30477;48.224;11.470;2023-02-11T00:18:52;97946.69;;;-1.29;66.49
44751;BME280;30477;48.224;11.470;2023-02-11T00:21:21;97944.25;;;-1.35;66.44
44751;BME280;30477;48.224;11.470;2023-02-11T00:23:47;97937.56;;;-1.40;66.52
44751;BME280;30477;48.224;11.470;2023-02-11T00:26:19;97932.38;;;-1.33;66.94
44751;BME280;30477;48.224;11.470;2023-02-11T00:28:46;97933.09;;;-1.23;66.71
44751;BME280;30477;48.224;11.470;2023-02-11T00:31:13;97939.84;;;-1.22;66.51
44751;BME280;30477;48.224;11.470;2023-02-11T00:33:39;97933.09;;;-1.23;66.86
44751;BME280;30477;48.224;11.470;2023-02-11T00:36:06;97931.38;;;-1.23;66.65
44751;BME280;30477;48.224;11.470;2023-02-11T00:38:31;97921.22;;;-1.23;66.64
44751;BME280;30477;48.224;11.470;2023-02-11T00:40:56;97918.75;;;-1.26;66.68
44751;BME280;30477;48.224;11.470;2023-02-11T00:43:22;97912.84;;;-1.28;66.58
44751;BME280;30477;48.224;11.470;2023-02-11T00:45:47;97911.19;;;-1.32;66.46
44751;BME280;30477;48.224;11.470;2023-02-11T00:48:12;97909.50;;;-1.33;66.87
44751;BME280;30477;48.224;11.470;2023-02-11T00:50:38;97913.75;;;-1.35;66.69
44751;BME280;30477;48.224;11.470;2023-02-11T00:53:03;97911.13;;;-1.29;66.98
44751;BME280;30477;48.224;11.470;2023-02-11T00:55:28;97920.47;;;-1.28;66.82
44751;BME280;30477;48.224;11.470;2023-02-11T00:57:54;97912.88;;;-1.31;66.81
44751;BME280;30477;48.224;11.470;2023-02-11T01:00:19;97911.22;;;-1.35;66.80
44751;BME280;30477;48.224;11.470;2023-02-11T01:02:46;97913.84;;;-1.39;66.79
44751;BME280;30477;48.224;11.470;2023-02-11T01:05:11;97912.19;;;-1.44;66.95
44751;BME280;30477;48.224;11.470;2023-02-11T01:07:37;97918.16;;;-1.46;67.15
44751;BME280;30477;48.224;11.470;2023-02-11T01:10:02;97919.63;;;-1.30;67.43
44751;BME280;30477;48.224;11.470;2023-02-11T01:12:28;97918.19;;;-1.49;66.92
44751;BME280;30477;48.224;11.470;2023-02-11T01:14:53;97911.53;;;-1.56;67.25
44751;BME280;30477;48.224;11.470;2023-02-11T01:17:19;97917.56;;;-1.67;67.24
44751;BME280;30477;48.224;11.470;2023-02-11T01:19:44;97909.28;;;-1.79;67.34
44751;BME280;30477;48.224;11.470;2023-02-11T01:22:09;97915.19;;;-1.79;67.65
44751;BME280;30477;48.224;11.470;2023-02-11T01:24:35;97914.28;;;-1.75;68.02
44751;BME280;30477;48.224;11.470;2023-02-11T01:27:00;97916.75;;;-1.69;67.99
44751;BME280;30477;48.224;11.470;2023-02-11T01:29:25;97914.41;;;-1.86;67.70
44751;BME280;30477;48.224;11.470;2023-02-11T01:31:51;97910.38;;;-2.00;67.92
44751;BME280;30477;48.224;11.470;2023-02-11T01:34:16;97914.66;;;-2.06;68.09
44751;BME280;30477;48.224;11.470;2023-02-11T01:36:42;97917.22;;;-2.09;68.23
44751;BME280;30477;48.224;11.470;2023-02-11T01:39:07;97918.91;;;-2.08;68.71
44751;BME280;30477;48.224;11.470;2023-02-11T01:41:33;97917.22;;;-2.10;68.45
44751;BME280;30477;48.224;11.470;2023-02-11T01:46:50;97908.72;;;-2.05;68.67
44751;BME280;30477;48.224;11.470;2023-02-11T01:49:19;97907.81;;;-1.97;68.75
44751;BME280;30477;48.224;11.470;2023-02-11T01:54:20;97903.53;;;-1.95;68.63
44751;BME280;30477;48.224;11.470;2023-02-11T01:57:05;97905.22;;;-1.94;68.81
44751;BME280;30477;48.224;11.470;2023-02-11T02:02:53;97902.53;;;-1.82;68.43
44751;BME280;30477;48.224;11.470;2023-02-11T02:08:13;97897.53;;;-1.88;68.25
44751;BME280;30477;48.224;11.470;2023-02-11T02:10:43;97900.28;;;-2.07;68.10
44751;BME280;30477;48.224;11.470;2023-02-11T02:13:10;97890.31;;;-2.22;68.38
44751;BME280;30477;48.224;11.470;2023-02-11T02:15:37;97894.50;;;-2.19;68.48
44751;BME280;30477;48.224;11.470;2023-02-11T02:25:57;97876.63;;;-2.09;68.87
44751;BME280;30477;48.224;11.470;2023-02-11T02:34:18;97857.84;;;-1.92;68.40
44751;BME280;30477;48.224;11.470;2023-02-11T02:36:54;97866.28;;;-1.92;68.27
44751;BME280;30477;48.224;11.470;2023-02-11T02:39:25;97856.06;;;-1.87;68.79
44751;BME280;30477;48.224;11.470;2023-02-11T02:41:52;97853.59;;;-1.93;67.98
44751;BME280;30477;48.224;11.470;2023-02-11T02:44:19;97854.69;;;-2.13;68.40
44751;BME280;30477;48.224;11.470;2023-02-11T02:46:44;97852.19;;;-2.16;68.26
44751;BME280;30477;48.224;11.470;2023-02-11T02:49:14;97839.41;;;-2.07;68.74
44751;BME280;30477;48.224;11.470;2023-02-11T03:03:14;97815.38;;;-1.81;68.12
44751;BME280;30477;48.224;11.470;2023-02-11T03:06:00;97805.13;;;-1.75;68.25
44751;BME280;30477;48.224;11.470;2023-02-11T03:08:29;97802.44;;;-1.63;68.20
44751;BME280;30477;48.224;11.470;2023-02-11T03:10:56;97795.72;;;-1.67;67.66
44751;BME280;30477;48.224;11.470;2023-02-11T03:13:26;97797.44;;;-1.67;67.81
44751;BME280;30477;48.224;11.470;2023-02-11T03:15:56;97792.34;;;-1.66;67.82
44751;BME280;30477;48.224;11.470;2023-02-11T03:18:25;97794.81;;;-1.63;67.74
44751;BME280;30477;48.224;11.470;2023-02-11T03:20:53;97790.56;;;-1.60;67.68
44751;BME280;30477;48.224;11.470;2023-02-11T03:23:25;97801.53;;;-1.58;67.39
44751;BME280;30477;48.224;11.470;2023-02-11T03:25:57;97793.06;;;-1.57;67.27
44751;BME280;30477;48.224;11.470;2023-02-11T03:28:39;97808.31;;;-1.60;67.22
44751;BME280;30477;48.224;11.470;2023-02-11T03:31:20;97817.00;;;-1.74;67.04
44751;BME280;30477;48.224;11.470;2023-02-11T03:33:56;97807.66;;;-1.73;67.46
44751;BME280;30477;48.224;11.470;2023-02-11T03:36:35;97797.44;;;-1.70;67.47
44751;BME280;30477;48.224;11.470;2023-02-11T03:39:04;97800.81;;;-1.68;67.40
44751;BME280;30477;48.224;11.470;2023-02-11T03:41:30;97804.97;;;-1.61;67.22
44751;BME280;30477;48.224;11.470;2023-02-11T03:43:58;97810.09;;;-1.66;67.22
44751;BME280;30477;48.224;11.470;2023-02-11T03:46:32;97827.97;;;-1.72;67.04
44751;BME280;30477;48.224;11.470;2023-02-11T03:49:04;97818.81;;;-1.85;67.07
44751;BME280;30477;48.224;11.470;2023-02-11T03:51:34;97805.28;;;-1.84;67.39
44751;BME280;30477;48.224;11.470;2023-02-11T03:54:03;97812.91;;;-1.84;67.07
44751;BME280;30477;48.224;11.470;2023-02-11T03:56:32;97813.94;;;-2.00;67.12
44751;BME280;30477;48.224;11.470;2023-02-11T03:59:00;97813.19;;;-2.06;66.85
44751;BME280;30477;48.224;11.470;2023-02-11T04:01:25;97820.00;;;-2.12;67.42
44751;BME280;30477;48.224;11.470;2023-02-11T04:03:50;97811.41;;;-2.00;67.51
44751;BME280;30477;48.224;11.470;2023-02-11T04:06:16;97815.66;;;-2.01;67.23
44751;BME280;30477;48.224;11.470;2023-02-11T04:08:41;97828.38;;;-2.04;67.30
44751;BME280;30477;48.224;11.470;2023-02-11T04:11:07;97834.44;;;-2.16;67.18
44751;BME280;30477;48.224;11.470;2023-02-11T04:13:32;97833.75;;;-2.29;67.25
44751;BME280;30477;48.224;11.470;2023-02-11T04:15:57;97831.09;;;-2.18;67.76
44751;BME280;30477;48.224;11.470;2023-02-11T04:18:23;97837.03;;;-2.20;67.26
44751;BME280;30477;48.224;11.470;2023-02-11T04:20:49;97837.06;;;-2.22;67.35
44751;BME280;30477;48.224;11.470;2023-02-11T04:23:14;97839.53;;;-2.19;67.64
44751;BME280;30477;48.224;11.470;2023-02-11T04:25:40;97835.22;;;-2.12;67.39
44751;BME280;30477;48.224;11.470;2023-02-11T04:28:06;97831.78;;;-2.07;67.38
44751;BME280;30477;48.224;11.470;2023-02-11T04:30:31;97843.59;;;-2.04;67.25
44751;BME280;30477;48.224;11.470;2023-02-11T04:32:57;97848.72;;;-2.09;67.30
44751;BME280;30477;48.224;11.470;2023-02-11T04:35:22;97859.88;;;-2.20;66.95
44751;BME280;30477;48.224;11.470;2023-02-11T04:37:48;97863.44;;;-2.38;67.30
44751;BME280;30477;48.224;11.470;2023-02-11T04:40:13;97865.16;;;-2.40;67.33
44751;BME280;30477;48.224;11.470;2023-02-11T04:42:38;97860.94;;;-2.41;67.36
44751;BME280;30477;48.224;11.470;2023-02-11T04:45:04;97854.22;;;-2.47;67.75
44751;BME280;30477;48.224;11.470;2023-02-11T04:47:30;97860.94;;;-2.43;67.83
44751;BME280;30477;48.224;11.470;2023-02-11T04:49:55;97860.06;;;-2.40;67.89
44751;BME280;30477;48.224;11.470;2023-02-11T04:52:20;97866.91;;;-2.46;67.70
44751;BME280;30477;48.224;11.470;2023-02-11T04:54:46;97876.06;;;-2.34;67.97
44751;BME280;30477;48.224;11.470;2023-02-11T04:57:11;97875.22;;;-2.33;67.70
44751;BME280;30477;48.224;11.470;2023-02-11T04:59:36;97871.84;;;-2.35;67.64
44751;BME280;30477;48.224;11.470;2023-02-11T05:02:02;97870.16;;;-2.34;67.57
44751;BME280;30477;48.224;11.470;2023-02-11T05:04:28;97879.41;;;-2.30;67.46
44751;BME280;30477;48.224;11.470;2023-02-11T05:06:53;97870.06;;;-2.27;67.65
44751;BME280;30477;48.224;11.470;2023-02-11T05:09:19;97868.38;;;-2.25;67.40
44751;BME280;30477;48.224;11.470;2023-02-11T05:11:44;97868.31;;;-2.23;67.60
44751;BME280;30477;48.224;11.470;2023-02-11T05:14:09;97869.97;;;-2.17;67.41
44751;BME280;30477;48.224;11.470;2023-02-11T05:16:35;97854.75;;;-2.19;67.33
44751;BME280;30477;48.224;11.470;2023-02-11T05:19:00;97857.22;;;-2.13;67.47
44751;BME280;30477;48.224;11.470;2023-02-11T05:21:25;97852.06;;;-2.03;67.22
44751;BME280;30477;48.224;11.470;2023-02-11T05:23:51;97840.97;;;-1.96;67.54
44751;BME280;30477;48.224;11.470;2023-02-11T05:26:17;97835.00;;;-1.95;67.66
44751;BME280;30477;48.224;11.470;2023-02-11T05:28:43;97837.53;;;-1.94;67.60
44751;BME280;30477;48.224;11.470;2023-02-11T05:31:09;97837.53;;;-1.94;67.52
44751;BME280;30477;48.224;11.470;2023-02-11T05:33:35;97840.06;;;-1.94;67.59
44751;BME280;30477;48.224;11.470;2023-02-11T05:36:06;97834.13;;;-1.91;67.68
44751;BME280;30477;48.224;11.470;2023-02-11T05:38:32;97823.88;;;-1.85;67.52
44751;BME280;30477;48.224;11.470;2023-02-11T05:40:57;97827.09;;;-1.71;67.90
44751;BME280;30477;48.224;11.470;2023-02-11T05:43:23;97820.25;;;-1.66;67.63
44751;BME280;30477;48.224;11.470;2023-02-11T05:45:48;97816.84;;;-1.65;67.46
44751;BME280;30477;48.224;11.470;2023-02-11T05:48:14;97821.06;;;-1.64;67.36
44751;BME280;30477;48.224;11.470;2023-02-11T05:50:39;97804.03;;;-1.55;67.46
44751;BME280;30477;48.224;11.470;2023-02-11T05:53:05;97810.84;;;-1.59;67.03
44751;BME280;30477;48.224;11.470;2023-02-11T05:55:31;97806.53;;;-1.54;67.20
44751;BME280;30477;48.224;11.470;2023-02-11T05:57:56;97807.34;;;-1.52;67.35
44751;BME280;30477;48.224;11.470;2023-02-11T06:00:21;97804.84;;;-1.53;67.20
44751;BME280;30477;48.224;11.470;2023-02-11T06:02:47;97794.53;;;-1.44;67.05
44751;BME280;30477;48.224;11.470;2023-02-11T06:05:12;97802.19;;;-1.47;66.89
44751;BME280;30477;48.224;11.470;2023-02-11T06:07:37;97809.72;;;-1.39;67.06
44751;BME280;30477;48.224;11.470;2023-02-11T06:10:03;97804.69;;;-1.44;66.57
44751;BME280;30477;48.224;11.470;2023-02-11T06:12:28;97806.34;;;-1.40;66.89
44751;BME280;30477;48.224;11.470;2023-02-11T06:14:53;97818.97;;;-1.37;66.73
44751;BME280;30477;48.224;11.470;2023-02-11T06:17:19;97817.38;;;-1.42;66.50
44751;BME280;30477;48.224;11.470;2023-02-11T06:19:44;97824.94;;;-1.38;66.60
44751;BME280;30477;48.224;11.470;2023-02-11T06:22:09;97830.03;;;-1.41;66.52
44751;BME280;30477;48.224;11.470;2023-02-11T06:24:35;97843.56;;;-1.39;66.66
44751;BME280;30477;48.224;11.470;2023-02-11T06:27:02;97837.63;;;-1.38;66.35
44751;BME280;30477;48.224;11.470;2023-02-11T06:29:28;97832.56;;;-1.41;66.52
44751;BME280;30477;48.224;11.470;2023-02-11T06:31:53;97825.69;;;-1.33;66.70
44751;BME280;30477;48.224;11.470;2023-02-11T06:34:18;97821.38;;;-1.28;66.68
44751;BME280;30477;48.224;11.470;2023-02-11T06:36:43;97822.94;;;-1.20;66.49
44751;BME280;30477;48.224;11.470;2023-02-11T06:39:10;97822.94;;;-1.19;66.75
44751;BME280;30477;48.224;11.470;2023-02-11T06:41:36;97816.13;;;-1.15;66.63
44751;BME280;30477;48.224;11.470;2023-02-11T06:44:01;97811.88;;;-1.15;66.32
44751;BME280;30477;48.224;11.470;2023-02-11T06:46:27;97821.94;;;-1.09;66.44
44751;BME280;30477;48.224;11.470;2023-02-11T06:48:52;97814.22;;;-1.04;66.27
44751;BME280;30477;48.224;11.470;2023-02-11T06:51:17;97809.03;;;-0.98;66.29
44751;BME280;30477;48.224;11.470;2023-02-11T06:53:44;97816.69;;;-1.01;65.99
44751;BME280;30477;48.224;11.470;2023-02-11T06:56:14;97822.66;;;-1.00;66.32
44751;BME280;30477;48.224;11.470;2023-02-11T06:58:40;97826.88;;;-1.01;66.20
44751;BME280;30477;48.224;11.470;2023-02-11T07:01:11;97836.19;;;-1.02;66.34
44751;BME280;30477;48.224;11.470;2023-02-11T07:03:39;97841.97;;;-0.92;66.38
44751;BME280;30477;48.224;11.470;2023-02-11T07:06:06;97833.34;;;-0.82;66.44
44751;BME280;30477;48.224;11.470;2023-02-11T07:08:33;97851.03;;;-0.75;66.27
44751;BME280;30477;48.224;11.470;2023-02-11T07:10:59;97846.78;;;-0.75;65.97
44751;BME280;30477;48.224;11.470;2023-02-11T07:13:24;97834.97;;;-0.77;65.95
44751;BME280;30477;48.224;11.470;2023-02-11T07:15:49;97830.69;;;-0.75;66.00
44751;BME280;30477;48.224;11.470;2023-02-11T07:18:15;97822.16;;;-0.71;65.91
44751;BME280;30477;48.224;11.470;2023-02-11T07:20:40;97816.06;;;-0.63;65.80
44751;BME280;30477;48.224;11.470;2023-02-11T07:23:05;97808.25;;;-0.55;65.64
44751;BME280;30477;48.224;11.470;2023-02-11T07:25:31;97804.78;;;-0.51;65.51
44751;BME280;30477;48.224;11.470;2023-02-11T07:27:56;97810.69;;;-0.49;65.26
44751;BME280;30477;48.224;11.470;2023-02-11T07:30:22;97804.69;;;-0.45;65.46
44751;BME280;30477;48.224;11.470;2023-02-11T07:32:47;97815.66;;;-0.41;65.03
44751;BME280;30477;48.224;11.470;2023-02-11T07:35:13;97816.56;;;-0.45;64.83
44751;BME280;30477;48.224;11.470;2023-02-11T07:37:39;97819.81;;;-0.38;64.90
44751;BME280;30477;48.224;11.470;2023-02-11T07:40:06;97815.44;;;-0.32;64.82
44751;BME280;30477;48.224;11.470;2023-02-11T07:42:33;97808.56;;;-0.25;64.90
44751;BME280;30477;48.224;11.470;2023-02-11T07:44:58;97809.28;;;-0.20;64.64
44751;BME280;30477;48.224;11.470;2023-02-11T07:47:24;97807.47;;;-0.13;64.48
44751;BME280;30477;48.224;11.470;2023-02-11T07:49:49;97799.78;;;-0.10;64.27
44751;BME280;30477;48.224;11.470;2023-02-11T07:52:14;97803.88;;;-0.05;64.14
44751;BME280;30477;48.224;11.470;2023-02-11T07:54:40;97798.66;;;0.03;63.85
44751;BME280;30477;48.224;11.470;2023-02-11T07:57:05;97785.84;;;0.06;63.61
44751;BME280;30477;48.224;11.470;2023-02-11T07:59:30;97789.19;;;0.08;63.51
44751;BME280;30477;48.224;11.470;2023-02-11T08:01:56;97797.50;;;0.16;63.54
44751;BME280;30477;48.224;11.470;2023-02-11T08:04:21;97805.91;;;0.22;63.15
44751;BME280;30477;48.224;11.470;2023-02-11T08:06:46;97798.94;;;0.28;63.18
44751;BME280;30477;48.224;11.470;2023-02-11T08:09:14;97797.88;;;0.38;62.89
44751;BME280;30477;48.224;11.470;2023-02-11T08:11:41;97806.06;;;0.53;62.90
44751;BME280;30477;48.224;11.470;2023-02-11T08:14:07;97809.97;;;0.66;62.84
44751;BME280;30477;48.224;11.470;2023-02-11T08:16:33;97809.09;;;0.67;62.37
44751;BME280;30477;48.224;11.470;2023-02-11T08:19:02;97804.09;;;0.63;62.10
44751;BME280;30477;48.224;11.470;2023-02-11T08:21:28;97795.50;;;0.68;62.01
44751;BME280;30477;48.224;11.470;2023-02-11T08:23:54;97800.59;;;0.68;61.79
44751;BME280;30477;48.224;11.470;2023-02-11T08:26:25;97796.41;;;0.66;61.79
44751;BME280;30477;48.224;11.470;2023-02-11T08:28:52;97785.91;;;0.78;61.87
44751;BME280;30477;48.224;11.470;2023-02-11T08:31:21;97790.09;;;0.80;61.79
44751;BME280;30477;48.224;11.470;2023-02-11T08:33:47;97797.91;;;0.73;62.01
44751;BME280;30477;48.224;11.470;2023-02-11T08:36:18;97800.63;;;0.67;62.27
44751;BME280;30477;48.224;11.470;2023-02-11T08:38:44;97814.34;;;0.61;62.45
44751;BME280;30477;48.224;11.470;2023-02-11T08:41:10;97797.91;;;0.73;62.80
44751;BME280;30477;48.224;11.470;2023-02-11T08:43:39;97802.72;;;0.85;62.73
44751;BME280;30477;48.224;11.470;2023-02-11T08:46:08;97804.34;;;0.89;62.82
44751;BME280;30477;48.224;11.470;2023-02-11T08:48:35;97797.47;;;0.91;62.46
44751;BME280;30477;48.224;11.470;2023-02-11T08:51:07;97796.34;;;1.03;62.52
44751;BME280;30477;48.224;11.470;2023-02-11T08:53:35;97790.88;;;1.17;62.17
44751;BME280;30477;48.224;11.470;2023-02-11T08:56:01;97780.50;;;1.25;61.81
44751;BME280;30477;48.224;11.470;2023-02-11T08:58:26;97776.09;;;1.30;61.59
44751;BME280;30477;48.224;11.470;2023-02-11T09:00:52;97781.94;;;1.35;61.27
44751;BME280;30477;48.224;11.470;2023-02-11T09:03:17;97791.19;;;1.39;60.86
44751;BME280;30477;48.224;11.470;2023-02-11T09:05:45;97776.81;;;1.35;60.35
44751;BME280;30477;48.224;11.470;2023-02-11T09:08:10;97788.63;;;1.39;60.34
44751;BME280;30477;48.224;11.470;2023-02-11T09:10:36;97795.22;;;1.46;59.73
44751;BME280;30477;48.224;11.470;2023-02-11T09:13:02;97802.84;;;1.48;59.80
44751;BME280;30477;48.224;11.470;2023-02-11T09:15:28;97779.84;;;1.49;59.58
44751;BME280;30477;48.224;11.470;2023-02-11T09:17:53;97782.03;;;1.61;59.61
44751;BME280;30477;48.224;11.470;2023-02-11T09:20:18;97787.69;;;1.73;59.32
44751;BME280;30477;48.224;11.470;2023-02-11T09:22:45;97789.97;;;1.82;59.25
44751;BME280;30477;48.224;11.470;2023-02-11T09:25:10;97794.13;;;1.86;59.10
44751;BME280;30477;48.224;11.470;2023-02-11T09:27:35;97789.91;;;1.85;59.06
44751;BME280;30477;48.224;11.470;2023-02-11T09:30:01;97792.19;;;1.94;59.05
44751;BME280;30477;48.224;11.470;2023-02-11T09:32:26;97791.19;;;2.00;59.05
44751;BME280;30477;48.224;11.470;2023-02-11T09:34:51;97798.78;;;2.01;58.77
44751;BME280;30477;48.224;11.470;2023-02-11T09:37:17;97788.66;;;1.98;58.46
44751;BME280;30477;48.224;11.470;2023-02-11T09:39:42;97796.28;;;2.00;58.66
44751;BME280;30477;48.224;11.470;2023-02-11T09:44:57;97792.13;;;2.26;58.79
44751;BME280;30477;48.224;11.470;2023-02-11T09:47:31;97781.63;;;2.35;58.55
44751;BME280;30477;48.224;11.470;2023-02-11T09:50:10;97771.78;;;2.51;58.42
44751;BME280;30477;48.224;11.470;2023-02-11T09:55:24;97773.44;;;2.78;57.73
44751;BME280;30477;48.224;11.470;2023-02-11T09:57:50;97765.53;;;2.86;57.32
44751;BME280;30477;48.224;11.470;2023-02-11T10:00:30;97763.66;;;2.91;57.31
44751;BME280;30477;48.224;11.470;2023-02-11T10:09:12;97737.63;;;3.05;56.63
44751;BME280;30477;48.224;11.470;2023-02-11T10:22:21;97779.16;;;3.37;55.83
44751;BME280;30477;48.224;11.470;2023-02-11T10:24:53;97767.00;;;3.43;55.69
44751;BME280;30477;48.224;11.470;2023-02-11T10:27:20;97760.03;;;3.47;55.53
44751;BME280;30477;48.224;11.470;2023-02-11T10:29:52;97754.38;;;3.62;55.32
44751;BME280;30477;48.224;11.470;2023-02-11T10:32:30;97752.16;;;3.77;55.18
44751;BME280;30477;48.224;11.470;2023-02-11T10:35:01;97756.09;;;3.85;54.89
44751;BME280;30477;48.224;11.470;2023-02-11T10:37:28;97750.38;;;3.79;54.51
44751;BME280;30477;48.224;11.470;2023-02-11T10:39:54;97748.69;;;3.78;54.39
44751;BME280;30477;48.224;11.470;2023-02-11T10:42:19;97747.03;;;3.77;54.39
44751;BME280;30477;48.224;11.470;2023-02-11T10:44:55;97754.47;;;3.83;54.48
44751;BME280;30477;48.224;11.470;2023-02-11T10:47:23;97756.69;;;3.92;54.56
44751;BME280;30477;48.224;11.470;2023-02-11T10:49:50;97752.47;;;3.91;54.14
44751;BME280;30477;48.224;11.470;2023-02-11T10:52:26;97745.75;;;3.89;53.95
44751;BME280;30477;48.224;11.470;2023-02-11T10:55:00;97748.97;;;3.94;53.72
44751;BME280;30477;48.224;11.470;2023-02-11T10:57:34;97740.09;;;4.02;53.72
44751;BME280;30477;48.224;11.470;2023-02-11T11:00:18;97736.47;;;4.08;53.73
44751;BME280;30477;48.224;11.470;2023-02-11T11:02:44;97732.91;;;4.12;53.43
44751;BME280;30477;48.224;11.470;2023-02-11T11:05:19;97733.59;;;4.16;53.60
44751;BME280;30477;48.224;11.470;2023-02-11T11:07:57;97723.97;;;4.22;53.21
44751;BME280;30477;48.224;11.470;2023-02-11T11:10:44;97723.97;;;4.22;53.07
44751;BME280;30477;48.224;11.470;2023-02-11T11:13:34;97720.25;;;4.30;53.02
44751;BME280;30477;48.224;11.470;2023-02-11T11:18:32;97725.72;;;4.42;53.10
44751;BME280;30477;48.224;11.470;2023-02-11T11:21:00;97727.50;;;4.40;52.77
44751;BME280;30477;48.224;11.470;2023-02-11T11:23:28;97726.81;;;4.37;52.88
44751;BME280;30477;48.224;11.470;2023-02-11T11:26:04;97720.50;;;4.45;53.05
44751;BME280;30477;48.224;11.470;2023-02-11T11:28:36;97710.16;;;4.47;52.97
44751;BME280;30477;48.224;11.470;2023-02-11T11:31:04;97710.09;;;4.48;52.73
44751;BME280;30477;48.224;11.470;2023-02-11T11:33:33;97707.28;;;4.55;52.41
44751;BME280;30477;48.224;11.470;2023-02-11T11:38:29;97703.97;;;4.73;52.56
44751;BME280;30477;48.224;11.470;2023-02-11T11:41:22;97706.16;;;4.82;52.26
44751;BME280;30477;48.224;11.470;2023-02-11T11:44:20;97722.06;;;4.91;51.91
44751;BME280;30477;48.224;11.470;2023-02-11T11:46:50;97715.63;;;4.80;51.76
44751;BME280;30477;48.224;11.470;2023-02-11T11:49:33;97715.53;;;4.83;51.75
44751;BME280;30477;48.224;11.470;2023-02-11T11:52:18;97725.31;;;4.74;51.67
44751;BME280;30477;48.224;11.470;2023-02-11T11:54:52;97727.00;;;4.75;51.70
44751;BME280;30477;48.224;11.470;2023-02-11T11:57:24;97715.97;;;4.73;51.77
44751;BME280;30477;48.224;11.470;2023-02-11T11:59:50;97717.69;;;4.72;51.63
44751;BME280;30477;48.224;11.470;2023-02-11T12:05:13;97699.28;;;4.83;52.00
44751;BME280;30477;48.224;11.470;2023-02-11T12:13:10;97694.88;;;4.86;51.99
44751;BME280;30477;48.224;11.470;2023-02-11T12:16:00;97685.88;;;4.97;51.94
44751;BME280;30477;48.224;11.470;2023-02-11T12:27:12;97692.91;;;5.12;51.76
44751;BME280;30477;48.224;11.470;2023-02-11T12:29:51;97696.91;;;5.19;51.63
44751;BME280;30477;48.224;11.470;2023-02-11T12:32:31;97684.56;;;5.27;51.52
44751;BME280;30477;48.224;11.470;2023-02-11T12:35:20;97687.63;;;5.36;51.18
44751;BME280;30477;48.224;11.470;2023-02-11T12:40:42;97674.09;;;5.32;50.72
44751;BME280;30477;48.224;11.470;2023-02-11T12:48:24;97677.75;;;5.26;49.93
44751;BME280;30477;48.224;11.470;2023-02-11T12:56:30;97659.28;;;5.18;49.09
44751;BME280;30477;48.224;11.470;2023-02-11T12:58:59;97660.56;;;5.28;48.83
44751;BME280;30477;48.224;11.470;2023-02-11T13:01:29;97662.59;;;5.41;48.57
44751;BME280;30477;48.224;11.470;2023-02-11T13:06:39;97644.19;;;5.50;48.16
44751;BME280;30477;48.224;11.470;2023-02-11T13:09:12;97646.06;;;5.65;48.33
44751;BME280;30477;48.224;11.470;2023-02-11T13:11:45;97640.66;;;5.72;48.26
44751;BME280;30477;48.224;11.470;2023-02-11T13:14:26;97646.13;;;5.83;48.06
44751;BME280;30477;48.224;11.470;2023-02-11T13:16:54;97636.81;;;5.80;47.93
44751;BME280;30477;48.224;11.470;2023-02-11T13:19:49;97625.28;;;5.89;48.30
44751;BME280;30477;48.224;11.470;2023-02-11T13:22:30;97620.72;;;6.13;48.55
44751;BME280;30477;48.224;11.470;2023-02-11T13:25:18;97618.72;;;6.20;47.94
44751;BME280;30477;48.224;11.470;2023-02-11T13:27:53;97615.38;;;6.18;47.98
44751;BME280;30477;48.224;11.470;2023-02-11T13:30:48;97620.66;;;6.15;48.02
44751;BME280;30477;48.224;11.470;2023-02-11T13:33:31;97610.81;;;6.05;47.97
44751;BME280;30477;48.224;11.470;2023-02-11T13:38:24;97617.47;;;6.09;47.82
44751;BME280;30477;48.224;11.470;2023-02-11T13:46:28;97617.72;;;6.05;47.45
44751;BME280;30477;48.224;11.470;2023-02-11T13:48:54;97622.22;;;6.00;47.69
44751;BME280;30477;48.224;11.470;2023-02-11T13:51:35;97619.72;;;5.98;47.78
44751;BME280;30477;48.224;11.470;2023-02-11T13:54:03;97628.88;;;6.04;47.74
44751;BME280;30477;48.224;11.470;2023-02-11T13:56:30;97622.63;;;6.09;47.69
44751;BME280;30477;48.224;11.470;2023-02-11T13:58:58;97635.47;;;6.09;47.81
44751;BME280;30477;48.224;11.470;2023-02-11T14:04:30;97631.38;;;6.05;47.99
44751;BME280;30477;48.224;11.470;2023-02-11T14:07:34;97636.66;;;6.02;48.37
44751;BME280;30477;48.224;11.470;2023-02-11T14:13:30;97620.34;;;6.03;48.58
44751;BME280;30477;48.224;11.470;2023-02-11T14:16:14;97624.72;;;6.01;48.86
44751;BME280;30477;48.224;11.470;2023-02-11T14:23:39;97626.53;;;5.99;49.20
44751;BME280;30477;48.224;11.470;2023-02-11T14:26:10;97619.66;;;6.00;49.47
44751;BME280;30477;48.224;11.470;2023-02-11T14:28:42;97618.81;;;5.99;49.74
44751;BME280;30477;48.224;11.470;2023-02-11T14:42:42;97627.44;;;5.98;50.51
44751;BME280;30477;48.224;11.470;2023-02-11T14:45:10;97627.59;;;5.95;50.75
44751;BME280;30477;48.224;11.470;2023-02-11T14:47:42;97618.16;;;5.94;50.90
44751;BME280;30477;48.224;11.470;2023-02-11T14:50:16;97623.31;;;5.94;50.91
44751;BME280;30477;48.224;11.470;2023-02-11T14:52:43;97628.34;;;5.97;50.90
44751;BME280;30477;48.224;11.470;2023-02-11T14:55:17;97624.03;;;5.98;51.15
44751;BME280;30477;48.224;11.470;2023-02-11T14:57:46;97634.94;;;6.03;51.14
44751;BME280;30477;48.224;11.470;2023-02-11T15:00:20;97639.09;;;6.05;51.21
44751;BME280;30477;48.224;11.470;2023-02-11T15:02:46;97641.66;;;6.05;51.11
44751;BME280;30477;48.224;11.470;2023-02-11T15:05:19;97646.09;;;6.02;50.86
44751;BME280;30477;48.224;11.470;2023-02-11T15:07:50;97639.44;;;5.98;51.30
44751;BME280;30477;48.224;11.470;2023-02-11T15:13:01;97644.78;;;5.93;51.11
44751;BME280;30477;48.224;11.470;2023-02-11T15:15:29;97648.34;;;5.90;51.03